Baileyville, Illinois
Current Conditions -  °F | °C
As of 8:35 AM on Monday 20 Oct 2014 (Local Time) from KFEP Reporting Station
Clear Clear  
Wind Chill: 45°   Ceiling: Unl
Heat Index: 49°   Visibility: 10mi
Dew Point: 44°   Wind: 10mph
Humidity: 81%   Direction: 320°NW
Pressure: 29.89"   Gusts: 16mph
Location:  42.2°N, 89.59°W
Report Text: KFEP 201335Z AUTO 32009G14KT 10SM CLR 10/06 A2989 RMK AO2 T00950064
Loading
Personal Weather Stations






























Interactive Weather Map
Tropical Storm Tracking
New forecast layout! Learn more

10-Day Weather Forecast

Advertisements
Track Severe Weather on mobile